Potash Point, Vermont
Current Conditions -  °F | °C
As of 10:55 PM on Sunday 23 Nov 2014 (Local Time) from K6B0 Reporting Station
Scattered Clouds Scattered Clouds  
Wind Chill: 42°   Ceiling: Unl
Heat Index: 45°   Visibility: 10mi
Dew Point: 39°   Wind: 5mph
Humidity: 81%   Direction: 200°SSW
Pressure: 29.98"   Gusts: NA
Location:  44.0804°N, 73.3324°W
Report Text: K6B0 240355Z AUTO 20004KT 10SM SCT090 07/04 A2998 RMK AO2 T00700039
Loading
Personal Weather Stations






























Interactive Weather Map New forecast layout! Learn more

10-Day Weather Forecast

Advertisements
Track Severe Weather on mobile